Terminal Aerodrome Forecast
Issued by NWS

Home | Current Version | Previous Version | Text Only | Print | Product List | Glossary On
Versions: 1 2 3 4 5 6 7 8 9 10 11 12 13 14 15 16 17 18 19 20 21 22 23 24 25 26
000
FTUS42 KGSP 280536
TAFHKY
TAF
KHKY 280536Z 2806/2906 00000KT P6SM SCT045
     FM280800 00000KT P6SM BKN045
     FM281400 05003KT P6SM SCT050
     FM281700 08004KT P6SM SCT050 SCT150
     FM282000 15005KT P6SM SCT050 SCT250
     FM282300 00000KT P6SM SCT150=

USA.gov is the U.S. government's official web portal to all federal, state and local government web resources and services.